sensor_id;sensor_type;location;lat;lon;timestamp;pressure;altitude;pressure_sealevel;temperature;humidity
42727;BME280;28372;56.832;60.658;2023-07-31T00:00:48;97248.31;;;21.32;66.42
42727;BME280;28372;56.832;60.658;2023-07-31T00:03:16;97251.06;;;21.32;66.62
42727;BME280;28372;56.832;60.658;2023-07-31T00:05:44;97243.88;;;21.26;67.41
42727;BME280;28372;56.832;60.658;2023-07-31T00:08:12;97246.00;;;21.21;67.25
42727;BME280;28372;56.832;60.658;2023-07-31T00:10:39;97257.28;;;21.23;67.49
42727;BME280;28372;56.832;60.658;2023-07-31T00:13:07;97253.94;;;21.19;68.00
42727;BME280;28372;56.832;60.658;2023-07-31T00:15:35;97252.56;;;21.24;67.92
42727;BME280;28372;56.832;60.658;2023-07-31T00:18:02;97252.09;;;21.16;68.39
42727;BME280;28372;56.832;60.658;2023-07-31T00:20:30;97249.34;;;21.16;68.68
42727;BME280;28372;56.832;60.658;2023-07-31T00:22:58;97249.34;;;21.16;69.12
42727;BME280;28372;56.832;60.658;2023-07-31T00:25:25;97249.97;;;21.20;68.86
42727;BME280;28372;56.832;60.658;2023-07-31T00:27:53;97246.59;;;21.16;69.96
42727;BME280;28372;56.832;60.658;2023-07-31T00:30:21;97251.94;;;21.11;69.74
42727;BME280;28372;56.832;60.658;2023-07-31T00:32:49;97264.34;;;21.15;69.46
42727;BME280;28372;56.832;60.658;2023-07-31T00:35:17;97256.97;;;21.12;70.24
42727;BME280;28372;56.832;60.658;2023-07-31T00:37:45;97258.97;;;21.12;70.49
42727;BME280;28372;56.832;60.658;2023-07-31T00:40:12;97258.97;;;21.12;70.55
42727;BME280;28372;56.832;60.658;2023-07-31T00:42:41;97260.81;;;21.24;69.04
42727;BME280;28372;56.832;60.658;2023-07-31T00:45:09;97262.97;;;21.20;70.88
42727;BME280;28372;56.832;60.658;2023-07-31T00:47:36;97256.88;;;21.25;69.43
42727;BME280;28372;56.832;60.658;2023-07-31T00:50:05;97264.16;;;21.19;71.49
42727;BME280;28372;56.832;60.658;2023-07-31T00:52:35;97268.28;;;21.23;71.69
42727;BME280;28372;56.832;60.658;2023-07-31T00:55:03;97266.94;;;21.28;71.03
42727;BME280;28372;56.832;60.658;2023-07-31T00:57:33;97264.81;;;21.32;71.56
42727;BME280;28372;56.832;60.658;2023-07-31T01:00:02;97262.97;;;21.20;71.68
42727;BME280;28372;56.832;60.658;2023-07-31T01:02:32;97258.81;;;21.25;71.32
42727;BME280;28372;56.832;60.658;2023-07-31T01:05:01;97261.91;;;21.27;71.79
42727;BME280;28372;56.832;60.658;2023-07-31T01:07:49;97258.13;;;21.52;74.54
42727;BME280;28372;56.832;60.658;2023-07-31T01:10:32;97260.53;;;21.50;73.66
42727;BME280;28372;56.832;60.658;2023-07-31T01:13:03;97258.84;;;21.34;73.10
42727;BME280;28372;56.832;60.658;2023-07-31T01:15:31;97257.47;;;21.20;72.49
42727;BME280;28372;56.832;60.658;2023-07-31T01:17:58;97263.09;;;21.16;73.47
42727;BME280;28372;56.832;60.658;2023-07-31T01:20:27;97267.38;;;21.17;73.64
42727;BME280;28372;56.832;60.658;2023-07-31T01:23:14;97270.13;;;21.17;74.02
42727;BME280;28372;56.832;60.658;2023-07-31T01:26:04;97272.28;;;21.32;74.75
42727;BME280;28372;56.832;60.658;2023-07-31T01:28:44;97276.72;;;21.38;76.13
42727;BME280;28372;56.832;60.658;2023-07-31T01:31:18;97268.94;;;21.37;74.68
42727;BME280;28372;56.832;60.658;2023-07-31T01:33:48;97270.91;;;21.46;73.14
42727;BME280;28372;56.832;60.658;2023-07-31T01:36:17;97272.13;;;21.45;72.74
42727;BME280;28372;56.832;60.658;2023-07-31T01:38:44;97273.50;;;21.40;73.36
42727;BME280;28372;56.832;60.658;2023-07-31T01:41:12;97263.41;;;21.28;74.31
42727;BME280;28372;56.832;60.658;2023-07-31T01:43:40;97272.13;;;21.45;73.50
42727;BME280;28372;56.832;60.658;2023-07-31T01:46:08;97272.34;;;21.60;72.61
42727;BME280;28372;56.832;60.658;2023-07-31T01:48:36;97269.44;;;21.63;72.85
42727;BME280;28372;56.832;60.658;2023-07-31T01:51:05;97267.75;;;21.66;71.99
42727;BME280;28372;56.832;60.658;2023-07-31T01:53:33;97264.53;;;21.58;72.97
42727;BME280;28372;56.832;60.658;2023-07-31T01:56:01;97271.88;;;21.70;72.62
42727;BME280;28372;56.832;60.658;2023-07-31T01:58:30;97279.97;;;21.83;71.78
42727;BME280;28372;56.832;60.658;2023-07-31T02:00:58;97274.91;;;22.00;70.78
42727;BME280;28372;56.832;60.658;2023-07-31T02:03:26;97267.84;;;22.18;70.04
42727;BME280;28372;56.832;60.658;2023-07-31T02:05:54;97275.19;;;22.21;68.80
42727;BME280;28372;56.832;60.658;2023-07-31T02:08:25;97264.75;;;22.34;68.42
42727;BME280;28372;56.832;60.658;2023-07-31T02:10:53;97274.88;;;22.37;68.53
42727;BME280;28372;56.832;60.658;2023-07-31T02:13:23;97263.81;;;22.47;67.48
42727;BME280;28372;56.832;60.658;2023-07-31T02:15:51;97267.00;;;22.54;66.81
42727;BME280;28372;56.832;60.658;2023-07-31T02:18:19;97263.44;;;22.63;66.12
42727;BME280;28372;56.832;60.658;2023-07-31T02:20:50;97269.31;;;22.89;66.20
42727;BME280;28372;56.832;60.658;2023-07-31T02:23:19;97262.97;;;22.98;65.29
42727;BME280;28372;56.832;60.658;2023-07-31T02:25:47;97264.75;;;23.10;63.68
42727;BME280;28372;56.832;60.658;2023-07-31T02:28:15;97263.47;;;23.21;63.17
42727;BME280;28372;56.832;60.658;2023-07-31T02:30:45;97272.72;;;23.33;62.89
42727;BME280;28372;56.832;60.658;2023-07-31T02:33:16;97261.88;;;23.29;62.14
42727;BME280;28372;56.832;60.658;2023-07-31T02:35:44;97267.28;;;23.48;61.85
42727;BME280;28372;56.832;60.658;2023-07-31T02:38:11;97270.72;;;23.57;61.24
42727;BME280;28372;56.832;60.658;2023-07-31T02:40:40;97263.53;;;23.75;61.09
42727;BME280;28372;56.832;60.658;2023-07-31T02:43:10;97258.97;;;23.87;60.06
42727;BME280;28372;56.832;60.658;2023-07-31T02:45:39;97272.06;;;24.01;59.62
42727;BME280;28372;56.832;60.658;2023-07-31T02:48:07;97270.25;;;23.98;59.38
42727;BME280;28372;56.832;60.658;2023-07-31T02:50:35;97264.84;;;24.19;58.97
42727;BME280;28372;56.832;60.658;2023-07-31T02:53:03;97268.75;;;24.27;58.17
42727;BME280;28372;56.832;60.658;2023-07-31T02:55:30;97260.44;;;24.42;58.08
42727;BME280;28372;56.832;60.658;2023-07-31T02:57:58;97256.19;;;24.91;57.64
42727;BME280;28372;56.832;60.658;2023-07-31T03:00:26;97264.50;;;26.00;53.41
42727;BME280;28372;56.832;60.658;2023-07-31T03:02:54;97262.81;;;27.04;51.04
42727;BME280;28372;56.832;60.658;2023-07-31T03:05:22;97266.19;;;27.97;48.12
42727;BME280;28372;56.832;60.658;2023-07-31T03:07:49;97269.03;;;28.82;45.35
42727;BME280;28372;56.832;60.658;2023-07-31T03:10:17;97259.53;;;29.36;44.15
42727;BME280;28372;56.832;60.658;2023-07-31T03:12:49;97262.56;;;29.97;41.55
42727;BME280;28372;56.832;60.658;2023-07-31T03:15:16;97260.59;;;30.83;40.17
42727;BME280;28372;56.832;60.658;2023-07-31T03:17:44;97263.34;;;31.57;39.21
42727;BME280;28372;56.832;60.658;2023-07-31T03:20:12;97256.28;;;32.26;37.72
42727;BME280;28372;56.832;60.658;2023-07-31T03:22:39;97255.56;;;32.72;36.51
42727;BME280;28372;56.832;60.658;2023-07-31T03:25:07;97248.13;;;33.01;35.77
42727;BME280;28372;56.832;60.658;2023-07-31T03:27:37;97252.41;;;33.56;34.91
42727;BME280;28372;56.832;60.658;2023-07-31T03:30:05;97245.22;;;34.16;33.70
42727;BME280;28372;56.832;60.658;2023-07-31T03:32:33;97245.41;;;34.60;32.87
42727;BME280;28372;56.832;60.658;2023-07-31T03:35:01;97243.31;;;35.03;32.44
42727;BME280;28372;56.832;60.658;2023-07-31T03:37:30;97240.00;;;35.20;31.55
42727;BME280;28372;56.832;60.658;2023-07-31T03:39:58;97239.66;;;35.60;31.09
42727;BME280;28372;56.832;60.658;2023-07-31T03:42:25;97226.63;;;35.86;30.28
42727;BME280;28372;56.832;60.658;2023-07-31T03:44:53;97234.94;;;36.38;29.82
42727;BME280;28372;56.832;60.658;2023-07-31T03:47:21;97224.41;;;36.93;28.84
42727;BME280;28372;56.832;60.658;2023-07-31T03:49:49;97226.75;;;37.27;28.92
42727;BME280;28372;56.832;60.658;2023-07-31T03:52:17;97227.09;;;37.72;28.14
42727;BME280;28372;56.832;60.658;2023-07-31T03:54:44;97223.38;;;38.02;27.19
42727;BME280;28372;56.832;60.658;2023-07-31T03:57:12;97220.06;;;38.47;26.54
42727;BME280;28372;56.832;60.658;2023-07-31T03:59:40;97218.63;;;38.81;26.06
42727;BME280;28372;56.832;60.658;2023-07-31T04:02:07;97223.47;;;39.05;25.65
42727;BME280;28372;56.832;60.658;2023-07-31T04:04:35;97229.47;;;39.72;24.47
42727;BME280;28372;56.832;60.658;2023-07-31T04:07:03;97223.63;;;39.97;24.57
42727;BME280;28372;56.832;60.658;2023-07-31T04:09:30;97217.84;;;40.32;23.61
42727;BME280;28372;56.832;60.658;2023-07-31T04:11:58;97223.00;;;40.63;23.50
42727;BME280;28372;56.832;60.658;2023-07-31T04:14:26;97225.56;;;40.79;23.66
42727;BME280;28372;56.832;60.658;2023-07-31T04:16:53;97220.50;;;40.87;23.10
42727;BME280;28372;56.832;60.658;2023-07-31T04:19:21;97213.66;;;41.00;23.21
42727;BME280;28372;56.832;60.658;2023-07-31T04:21:49;97205.13;;;41.29;22.98
42727;BME280;28372;56.832;60.658;2023-07-31T04:24:16;97211.81;;;41.63;22.64
42727;BME280;28372;56.832;60.658;2023-07-31T04:26:52;97211.13;;;41.94;22.05
42727;BME280;28372;56.832;60.658;2023-07-31T04:29:20;97206.78;;;42.34;21.66
42727;BME280;28372;56.832;60.658;2023-07-31T04:31:48;97200.38;;;42.55;21.17
42727;BME280;28372;56.832;60.658;2023-07-31T04:34:16;97202.34;;;42.74;20.83
42727;BME280;28372;56.832;60.658;2023-07-31T04:36:43;97204.69;;;43.00;20.75
42727;BME280;28372;56.832;60.658;2023-07-31T04:39:11;97199.75;;;43.22;20.47
42727;BME280;28372;56.832;60.658;2023-07-31T04:41:39;97199.38;;;43.49;20.00
42727;BME280;28372;56.832;60.658;2023-07-31T04:44:07;97208.50;;;43.93;19.16
42727;BME280;28372;56.832;60.658;2023-07-31T04:46:34;97193.38;;;44.14;19.17
42727;BME280;28372;56.832;60.658;2023-07-31T04:49:03;97202.41;;;44.22;18.88
42727;BME280;28372;56.832;60.658;2023-07-31T04:51:30;97203.78;;;44.45;18.97
42727;BME280;28372;56.832;60.658;2023-07-31T04:53:58;97203.06;;;44.33;18.84
42727;BME280;28372;56.832;60.658;2023-07-31T04:56:26;97195.63;;;44.39;18.90
42727;BME280;28372;56.832;60.658;2023-07-31T04:58:53;97193.34;;;44.61;18.68
42727;BME280;28372;56.832;60.658;2023-07-31T05:01:22;97208.06;;;44.81;18.86
42727;BME280;28372;56.832;60.658;2023-07-31T05:03:49;97203.38;;;45.12;18.43
42727;BME280;28372;56.832;60.658;2023-07-31T05:06:17;97214.06;;;45.37;18.46
42727;BME280;28372;56.832;60.658;2023-07-31T05:08:45;97212.66;;;45.38;17.90
42727;BME280;28372;56.832;60.658;2023-07-31T05:11:12;97203.16;;;45.33;18.09
42727;BME280;28372;56.832;60.658;2023-07-31T05:13:40;97204.94;;;45.53;17.77
42727;BME280;28372;56.832;60.658;2023-07-31T05:16:08;97219.25;;;45.66;17.54
42727;BME280;28372;56.832;60.658;2023-07-31T05:18:35;97220.66;;;45.79;17.79
42727;BME280;28372;56.832;60.658;2023-07-31T05:21:03;97223.66;;;45.95;17.54
42727;BME280;28372;56.832;60.658;2023-07-31T05:23:31;97212.78;;;46.06;16.78
42727;BME280;28372;56.832;60.658;2023-07-31T05:26:07;97228.84;;;45.85;16.88
42727;BME280;28372;56.832;60.658;2023-07-31T05:28:36;97239.22;;;45.92;17.12
42727;BME280;28372;56.832;60.658;2023-07-31T05:31:04;97239.22;;;45.92;16.64
42727;BME280;28372;56.832;60.658;2023-07-31T05:33:32;97229.69;;;45.88;16.91
42727;BME280;28372;56.832;60.658;2023-07-31T05:36:00;97221.88;;;46.02;16.89
42727;BME280;28372;56.832;60.658;2023-07-31T05:38:28;97225.03;;;46.08;16.69
42727;BME280;28372;56.832;60.658;2023-07-31T05:40:55;97219.63;;;45.47;17.06
42727;BME280;28372;56.832;60.658;2023-07-31T05:43:23;97220.56;;;45.52;16.86
42727;BME280;28372;56.832;60.658;2023-07-31T05:45:51;97212.88;;;44.91;17.65
42727;BME280;28372;56.832;60.658;2023-07-31T05:48:19;97207.63;;;44.99;17.05
42727;BME280;28372;56.832;60.658;2023-07-31T05:50:46;97235.66;;;45.14;17.64
42727;BME280;28372;56.832;60.658;2023-07-31T05:53:14;97219.66;;;45.09;17.74
42727;BME280;28372;56.832;60.658;2023-07-31T05:55:42;97218.56;;;45.28;17.27
42727;BME280;28372;56.832;60.658;2023-07-31T05:58:10;97215.09;;;45.30;17.29
42727;BME280;28372;56.832;60.658;2023-07-31T06:00:37;97225.06;;;45.43;17.06
42727;BME280;28372;56.832;60.658;2023-07-31T06:03:05;97221.03;;;45.60;16.90
42727;BME280;28372;56.832;60.658;2023-07-31T06:05:33;97221.50;;;45.82;17.14
42727;BME280;28372;56.832;60.658;2023-07-31T06:08:01;97219.78;;;45.37;16.92
42727;BME280;28372;56.832;60.658;2023-07-31T06:10:29;97212.25;;;45.56;17.07
42727;BME280;28372;56.832;60.658;2023-07-31T06:12:56;97219.84;;;45.91;17.08
42727;BME280;28372;56.832;60.658;2023-07-31T06:15:25;97221.72;;;45.46;17.64
42727;BME280;28372;56.832;60.658;2023-07-31T06:17:53;97213.00;;;45.19;17.51
42727;BME280;28372;56.832;60.658;2023-07-31T06:20:21;97231.16;;;44.74;17.80
42727;BME280;28372;56.832;60.658;2023-07-31T06:22:49;97225.22;;;44.34;18.47
42727;BME280;28372;56.832;60.658;2023-07-31T06:25:17;97231.69;;;44.35;18.01
42727;BME280;28372;56.832;60.658;2023-07-31T06:27:44;97218.75;;;44.57;17.80
42727;BME280;28372;56.832;60.658;2023-07-31T06:30:12;97214.69;;;44.13;17.33
42727;BME280;28372;56.832;60.658;2023-07-31T06:32:40;97211.75;;;44.35;17.48
42727;BME280;28372;56.832;60.658;2023-07-31T06:35:08;97212.06;;;43.81;17.68
42727;BME280;28372;56.832;60.658;2023-07-31T06:37:36;97212.16;;;43.26;18.29
42727;BME280;28372;56.832;60.658;2023-07-31T06:40:05;97221.28;;;41.97;19.47
42727;BME280;28372;56.832;60.658;2023-07-31T06:42:35;97212.72;;;41.56;19.75
42727;BME280;28372;56.832;60.658;2023-07-31T06:45:02;97211.72;;;40.92;20.88
42727;BME280;28372;56.832;60.658;2023-07-31T06:47:33;97208.59;;;40.98;20.52
42727;BME280;28372;56.832;60.658;2023-07-31T06:50:01;97223.81;;;41.13;20.69
42727;BME280;28372;56.832;60.658;2023-07-31T06:52:30;97192.44;;;42.32;19.22
42727;BME280;28372;56.832;60.658;2023-07-31T06:55:16;97207.50;;;42.88;18.95
42727;BME280;28372;56.832;60.658;2023-07-31T06:57:50;97201.88;;;43.21;18.95
42727;BME280;28372;56.832;60.658;2023-07-31T07:00:19;97205.41;;;43.10;19.22
42727;BME280;28372;56.832;60.658;2023-07-31T07:02:48;97201.34;;;43.13;18.83
42727;BME280;28372;56.832;60.658;2023-07-31T07:05:17;97199.09;;;42.47;19.97
42727;BME280;28372;56.832;60.658;2023-07-31T07:07:45;97201.59;;;42.95;19.24
42727;BME280;28372;56.832;60.658;2023-07-31T07:10:13;97200.06;;;43.38;18.92
42727;BME280;28372;56.832;60.658;2023-07-31T07:12:41;97182.44;;;43.75;18.29
42727;BME280;28372;56.832;60.658;2023-07-31T07:15:09;97187.69;;;44.38;17.95
42727;BME280;28372;56.832;60.658;2023-07-31T07:17:37;97187.88;;;44.65;16.93
42727;BME280;28372;56.832;60.658;2023-07-31T07:20:05;97205.03;;;44.30;17.60
42727;BME280;28372;56.832;60.658;2023-07-31T07:22:33;97189.25;;;43.70;17.58
42727;BME280;28372;56.832;60.658;2023-07-31T07:25:00;97178.25;;;43.76;18.41
42727;BME280;28372;56.832;60.658;2023-07-31T07:27:30;97180.59;;;43.79;17.87
42727;BME280;28372;56.832;60.658;2023-07-31T07:29:58;97185.91;;;43.73;18.24
42727;BME280;28372;56.832;60.658;2023-07-31T07:32:25;97184.97;;;43.35;18.13
42727;BME280;28372;56.832;60.658;2023-07-31T07:34:53;97180.88;;;43.05;18.48
42727;BME280;28372;56.832;60.658;2023-07-31T07:37:21;97182.56;;;43.20;18.74
42727;BME280;28372;56.832;60.658;2023-07-31T07:39:48;97188.09;;;43.18;19.15
42727;BME280;28372;56.832;60.658;2023-07-31T07:42:16;97181.03;;;42.85;18.70
42727;BME280;28372;56.832;60.658;2023-07-31T07:44:44;97190.28;;;42.42;19.06
42727;BME280;28372;56.832;60.658;2023-07-31T07:47:12;97185.47;;;42.14;19.83
42727;BME280;28372;56.832;60.658;2023-07-31T07:49:40;97181.25;;;41.93;19.19
42727;BME280;28372;56.832;60.658;2023-07-31T07:52:08;97188.69;;;41.57;19.81
42727;BME280;28372;56.832;60.658;2023-07-31T07:54:35;97204.59;;;40.45;20.91
42727;BME280;28372;56.832;60.658;2023-07-31T07:57:03;97200.19;;;40.14;21.10
42727;BME280;28372;56.832;60.658;2023-07-31T07:59:31;97192.50;;;39.97;21.51
42727;BME280;28372;56.832;60.658;2023-07-31T08:01:59;97183.47;;;40.08;21.30
42727;BME280;28372;56.832;60.658;2023-07-31T08:04:27;97195.53;;;39.54;21.60
42727;BME280;28372;56.832;60.658;2023-07-31T08:06:55;97187.03;;;39.27;22.10
42727;BME280;28372;56.832;60.658;2023-07-31T08:09:22;97188.13;;;39.14;22.18
42727;BME280;28372;56.832;60.658;2023-07-31T08:11:50;97186.72;;;38.70;22.96
42727;BME280;28372;56.832;60.658;2023-07-31T08:14:18;97181.00;;;38.35;23.40
42727;BME280;28372;56.832;60.658;2023-07-31T08:16:46;97189.88;;;37.74;23.82
42727;BME280;28372;56.832;60.658;2023-07-31T08:19:13;97187.06;;;37.25;24.24
42727;BME280;28372;56.832;60.658;2023-07-31T08:21:41;97185.72;;;36.85;24.39
42727;BME280;28372;56.832;60.658;2023-07-31T08:24:09;97185.88;;;36.95;24.87
42727;BME280;28372;56.832;60.658;2023-07-31T08:26:37;97183.09;;;36.80;24.74
42727;BME280;28372;56.832;60.658;2023-07-31T08:29:05;97178.78;;;36.63;24.97
42727;BME280;28372;56.832;60.658;2023-07-31T08:31:32;97178.97;;;36.65;25.48
42727;BME280;28372;56.832;60.658;2023-07-31T08:34:00;97175.03;;;36.68;25.76
42727;BME280;28372;56.832;60.658;2023-07-31T08:36:28;97168.06;;;36.69;25.75
42727;BME280;28372;56.832;60.658;2023-07-31T08:38:56;97174.06;;;36.74;25.59
42727;BME280;28372;56.832;60.658;2023-07-31T08:41:24;97172.00;;;36.66;25.60
42727;BME280;28372;56.832;60.658;2023-07-31T08:43:53;97184.63;;;36.50;25.16
42727;BME280;28372;56.832;60.658;2023-07-31T08:46:22;97166.78;;;36.09;25.98
42727;BME280;28372;56.832;60.658;2023-07-31T08:48:51;97178.59;;;35.92;25.92
42727;BME280;28372;56.832;60.658;2023-07-31T08:51:20;97164.34;;;35.97;25.92
42727;BME280;28372;56.832;60.658;2023-07-31T08:53:47;97179.50;;;35.79;26.22
42727;BME280;28372;56.832;60.658;2023-07-31T08:56:15;97159.53;;;35.38;27.12
42727;BME280;28372;56.832;60.658;2023-07-31T09:46:39;97118.19;;;34.15;28.89
42727;BME280;28372;56.832;60.658;2023-07-31T09:49:13;97117.13;;;34.26;29.01
42727;BME280;28372;56.832;60.658;2023-07-31T09:51:42;97116.69;;;34.14;29.39
42727;BME280;28372;56.832;60.658;2023-07-31T09:54:14;97126.81;;;34.18;29.49
42727;BME280;28372;56.832;60.658;2023-07-31T09:56:47;97126.75;;;34.10;29.25
42727;BME280;28372;56.832;60.658;2023-07-31T09:59:19;97126.78;;;33.33;30.13
42727;BME280;28372;56.832;60.658;2023-07-31T10:01:51;97116.66;;;33.17;30.38
42727;BME280;28372;56.832;60.658;2023-07-31T10:04:26;97127.63;;;32.80;31.20
42727;BME280;28372;56.832;60.658;2023-07-31T10:06:55;97114.47;;;32.61;31.25
42727;BME280;28372;56.832;60.658;2023-07-31T10:09:25;97107.66;;;32.57;31.14
42727;BME280;28372;56.832;60.658;2023-07-31T10:12:01;97107.25;;;32.39;31.45
42727;BME280;28372;56.832;60.658;2023-07-31T10:14:30;97115.25;;;32.03;32.10
42727;BME280;28372;56.832;60.658;2023-07-31T10:16:58;97093.94;;;32.00;31.62
42727;BME280;28372;56.832;60.658;2023-07-31T10:19:27;97092.88;;;32.03;31.73
42727;BME280;28372;56.832;60.658;2023-07-31T10:21:55;97093.91;;;31.86;31.81
42727;BME280;28372;56.832;60.658;2023-07-31T10:24:24;97093.69;;;31.84;32.04
42727;BME280;28372;56.832;60.658;2023-07-31T10:26:53;97094.75;;;31.81;31.87
42727;BME280;28372;56.832;60.658;2023-07-31T10:29:25;97086.66;;;31.64;31.74
42727;BME280;28372;56.832;60.658;2023-07-31T10:31:56;97087.59;;;31.86;31.57
42727;BME280;28372;56.832;60.658;2023-07-31T10:34:25;97080.91;;;31.89;31.59
42727;BME280;28372;56.832;60.658;2023-07-31T10:42:38;97076.94;;;31.98;31.97
42727;BME280;28372;56.832;60.658;2023-07-31T10:45:11;97070.72;;;32.05;32.21
42727;BME280;28372;56.832;60.658;2023-07-31T10:47:44;97077.66;;;32.44;32.08
42727;BME280;28372;56.832;60.658;2023-07-31T10:52:40;97068.66;;;31.92;31.82
42727;BME280;28372;56.832;60.658;2023-07-31T10:55:40;97075.22;;;31.94;32.07
42727;BME280;28372;56.832;60.658;2023-07-31T10:58:09;97061.31;;;31.43;32.99
42727;BME280;28372;56.832;60.658;2023-07-31T11:00:42;97068.25;;;31.36;32.92
42727;BME280;28372;56.832;60.658;2023-07-31T11:03:10;97065.13;;;32.05;31.83
42727;BME280;28372;56.832;60.658;2023-07-31T11:10:43;97050.91;;;31.24;33.43
42727;BME280;28372;56.832;60.658;2023-07-31T11:13:11;97050.84;;;31.11;33.52
42727;BME280;28372;56.832;60.658;2023-07-31T11:15:40;97046.47;;;30.97;33.34
42727;BME280;28372;56.832;60.658;2023-07-31T11:18:08;97048.59;;;31.09;32.98
42727;BME280;28372;56.832;60.658;2023-07-31T11:20:38;97056.97;;;30.90;33.70
42727;BME280;28372;56.832;60.658;2023-07-31T11:23:08;97047.28;;;30.91;33.76
42727;BME280;28372;56.832;60.658;2023-07-31T11:25:38;97043.13;;;30.98;33.69
42727;BME280;28372;56.832;60.658;2023-07-31T11:28:09;97052.03;;;30.78;33.81
42727;BME280;28372;56.832;60.658;2023-07-31T11:30:39;97037.03;;;30.62;33.44
42727;BME280;28372;56.832;60.658;2023-07-31T11:33:09;97051.50;;;30.60;33.89
42727;BME280;28372;56.832;60.658;2023-07-31T11:35:46;97043.81;;;30.85;33.80
42727;BME280;28372;56.832;60.658;2023-07-31T11:40:55;97043.81;;;30.66;33.96
42727;BME280;28372;56.832;60.658;2023-07-31T11:43:23;97049.91;;;30.46;34.26
42727;BME280;28372;56.832;60.658;2023-07-31T11:45:55;97041.34;;;30.63;33.86
42727;BME280;28372;56.832;60.658;2023-07-31T11:48:28;97042.91;;;30.58;34.14
42727;BME280;28372;56.832;60.658;2023-07-31T11:51:01;97033.19;;;30.84;33.96
42727;BME280;28372;56.832;60.658;2023-07-31T11:56:03;97039.06;;;30.61;34.29
42727;BME280;28372;56.832;60.658;2023-07-31T11:58:35;97052.34;;;30.30;34.17
42727;BME280;28372;56.832;60.658;2023-07-31T12:01:04;97036.41;;;30.25;34.43
42727;BME280;28372;56.832;60.658;2023-07-31T12:03:33;97016.78;;;30.12;34.53
42727;BME280;28372;56.832;60.658;2023-07-31T12:06:01;97025.09;;;30.17;34.60
42727;BME280;28372;56.832;60.658;2023-07-31T12:08:29;97026.72;;;30.07;34.78
42727;BME280;28372;56.832;60.658;2023-07-31T12:11:03;97024.81;;;30.21;34.83
42727;BME280;28372;56.832;60.658;2023-07-31T12:13:32;97028.06;;;30.25;34.76
42727;BME280;28372;56.832;60.658;2023-07-31T12:16:02;97024.34;;;30.17;34.76
42727;BME280;28372;56.832;60.658;2023-07-31T12:18:37;97030.91;;;30.19;35.18
42727;BME280;28372;56.832;60.658;2023-07-31T12:21:07;97033.06;;;30.07;35.51
42727;BME280;28372;56.832;60.658;2023-07-31T12:23:37;97029.16;;;30.16;35.07
42727;BME280;28372;56.832;60.658;2023-07-31T12:26:12;97024.03;;;30.45;34.74
42727;BME280;28372;56.832;60.658;2023-07-31T12:28:49;97023.28;;;30.45;34.84
42727;BME280;28372;56.832;60.658;2023-07-31T12:31:21;97015.91;;;30.47;34.73
42727;BME280;28372;56.832;60.658;2023-07-31T12:33:51;97021.78;;;30.44;34.91
42727;BME280;28372;56.832;60.658;2023-07-31T12:36:22;97015.91;;;30.47;34.93
42727;BME280;28372;56.832;60.658;2023-07-31T12:38:51;97010.63;;;30.44;34.72
42727;BME280;28372;56.832;60.658;2023-07-31T12:41:19;97007.34;;;30.39;34.90
42727;BME280;28372;56.832;60.658;2023-07-31T12:43:46;97003.16;;;30.27;35.25
42727;BME280;28372;56.832;60.658;2023-07-31T12:46:14;96999.63;;;30.27;35.91
42727;BME280;28372;56.832;60.658;2023-07-31T12:48:43;97014.63;;;30.48;36.70
42727;BME280;28372;56.832;60.658;2023-07-31T12:51:11;97018.63;;;30.53;37.27
42727;BME280;28372;56.832;60.658;2023-07-31T12:53:38;96998.31;;;30.52;37.16
42727;BME280;28372;56.832;60.658;2023-07-31T12:56:06;97012.06;;;30.50;37.83
42727;BME280;28372;56.832;60.658;2023-07-31T12:58:34;97024.03;;;30.45;38.35
42727;BME280;28372;56.832;60.658;2023-07-31T13:01:01;97023.81;;;30.43;38.18
42727;BME280;28372;56.832;60.658;2023-07-31T13:03:29;97022.66;;;30.33;38.64
42727;BME280;28372;56.832;60.658;2023-07-31T13:05:57;97010.94;;;30.15;39.35
42727;BME280;28372;56.832;60.658;2023-07-31T13:08:25;97020.22;;;29.99;39.80
42727;BME280;28372;56.832;60.658;2023-07-31T13:10:53;97026.09;;;29.95;39.65
42727;BME280;28372;56.832;60.658;2023-07-31T13:13:21;97019.81;;;29.89;39.99
42727;BME280;28372;56.832;60.658;2023-07-31T13:15:49;97027.72;;;29.79;40.06
42727;BME280;28372;56.832;60.658;2023-07-31T13:18:17;97036.78;;;29.61;40.66
42727;BME280;28372;56.832;60.658;2023-07-31T13:20:44;97020.53;;;29.65;40.79
42727;BME280;28372;56.832;60.658;2023-07-31T13:23:12;97029.16;;;29.61;40.73
42727;BME280;28372;56.832;60.658;2023-07-31T13:25:40;97024.47;;;29.50;41.11
42727;BME280;28372;56.832;60.658;2023-07-31T13:28:08;97016.84;;;29.51;41.00
42727;BME280;28372;56.832;60.658;2023-07-31T13:30:36;97010.47;;;29.56;40.62
42727;BME280;28372;56.832;60.658;2023-07-31T13:33:03;97008.78;;;29.47;40.90
42727;BME280;28372;56.832;60.658;2023-07-31T13:35:31;97013.38;;;29.45;41.88
42727;BME280;28372;56.832;60.658;2023-07-31T13:37:59;97014.78;;;29.27;41.57
42727;BME280;28372;56.832;60.658;2023-07-31T13:40:27;97018.78;;;29.31;41.80
42727;BME280;28372;56.832;60.658;2023-07-31T13:42:54;97021.78;;;28.97;42.09
42727;BME280;28372;56.832;60.658;2023-07-31T13:45:23;97018.78;;;28.89;42.31
42727;BME280;28372;56.832;60.658;2023-07-31T13:47:50;97020.59;;;28.81;42.52
42727;BME280;28372;56.832;60.658;2023-07-31T13:50:19;97016.31;;;28.80;42.01
42727;BME280;28372;56.832;60.658;2023-07-31T13:52:48;97020.31;;;28.85;42.45
42727;BME280;28372;56.832;60.658;2023-07-31T13:55:16;97032.97;;;28.86;41.98
42727;BME280;28372;56.832;60.658;2023-07-31T13:57:43;97027.22;;;28.73;42.43
42727;BME280;28372;56.832;60.658;2023-07-31T14:00:12;97034.28;;;28.74;42.30
42727;BME280;28372;56.832;60.658;2023-07-31T14:02:40;97024.69;;;28.75;42.68
42727;BME280;28372;56.832;60.658;2023-07-31T14:05:08;97034.06;;;28.71;42.58